createdAt,value
2022-12-23T00:03:58.437Z,62.8
2022-12-23T00:09:01.275Z,62.8
2022-12-23T00:14:03.334Z,62
2022-12-23T00:19:05.423Z,61.1
2022-12-23T00:24:07.461Z,60.9
2022-12-23T00:29:09.480Z,56.5
2022-12-23T00:34:11.611Z,53.3
2022-12-23T00:39:13.826Z,56.4
2022-12-23T00:44:16.309Z,53.8
2022-12-23T00:49:18.402Z,55.3
2022-12-23T00:54:20.384Z,55.6
2022-12-23T00:59:22.672Z,55.9
2022-12-23T01:04:24.715Z,56.8
2022-12-23T01:09:26.963Z,53.3
2022-12-23T01:14:29.201Z,55
2022-12-23T01:19:32.037Z,56.7
2022-12-23T01:24:34.620Z,55.6
2022-12-23T01:29:36.822Z,55.9
2022-12-23T01:34:39.090Z,55.9
2022-12-23T01:39:41.697Z,55.2
2022-12-23T01:44:43.812Z,59.4
2022-12-23T01:49:45.923Z,59.3
2022-12-23T01:54:48.152Z,60.1
2022-12-23T01:59:50.809Z,57.3
2022-12-23T02:04:53.055Z,57.1
2022-12-23T02:09:55.464Z,55.4
2022-12-23T02:14:57.714Z,57.3
2022-12-23T02:20:00.267Z,64.4
2022-12-23T02:25:02.346Z,57.4
2022-12-23T02:30:04.397Z,58.9
2022-12-23T02:35:06.433Z,60.3
2022-12-23T02:40:08.594Z,58.4
2022-12-23T02:45:11.310Z,59.4
2022-12-23T02:50:13.320Z,57
2022-12-23T02:55:15.329Z,59.4
2022-12-23T03:00:17.579Z,62.6
2022-12-23T03:05:19.881Z,64.2
2022-12-23T03:10:22.261Z,61.4
2022-12-23T03:15:24.516Z,61.5
2022-12-23T03:20:26.889Z,62.4
2022-12-23T03:25:29.039Z,70.3
2022-12-23T03:30:31.076Z,64.1
2022-12-23T03:35:33.195Z,63
2022-12-23T03:40:35.339Z,65.5
2022-12-23T03:45:41.231Z,65.4
2022-12-23T03:50:44.216Z,65.2
2022-12-23T03:55:47.010Z,69.1
2022-12-23T04:00:49.090Z,66.9
2022-12-23T04:05:51.229Z,74.3
2022-12-23T04:10:53.613Z,68.4
2022-12-23T04:15:55.687Z,67.3
2022-12-23T04:20:57.825Z,66.1
2022-12-23T04:25:59.846Z,67.4
2022-12-23T04:31:02.008Z,67.3
2022-12-23T04:36:04.313Z,62.3
2022-12-23T04:41:06.445Z,67.3
2022-12-23T04:46:08.570Z,67.3
2022-12-23T04:51:10.762Z,62.1
2022-12-23T04:56:12.824Z,62.9
2022-12-23T05:01:14.993Z,68.3
2022-12-23T05:06:17.276Z,62.4
2022-12-23T05:11:19.317Z,58.6
2022-12-23T05:16:21.476Z,60.8
2022-12-23T05:21:24.035Z,59
2022-12-23T05:26:26.088Z,60.7
2022-12-23T05:31:28.414Z,55.4
2022-12-23T05:36:30.797Z,126.8
2022-12-23T05:41:32.997Z,91.4
2022-12-23T05:46:35.358Z,52
2022-12-23T05:51:37.572Z,56.5
2022-12-23T05:56:39.607Z,50.4
2022-12-23T06:01:42.461Z,54.5
2022-12-23T06:06:44.788Z,53.9
2022-12-23T06:11:46.878Z,55.1
2022-12-23T06:16:49.102Z,53.1
2022-12-23T06:21:51.383Z,57.2
2022-12-23T06:26:58.114Z,53.7
2022-12-23T06:32:00.888Z,58.7
2022-12-23T06:37:03.841Z,52.6
2022-12-23T06:42:06.310Z,52.5
2022-12-23T06:47:08.488Z,50
2022-12-23T06:52:10.447Z,46.5
2022-12-23T06:57:12.496Z,48.1
2022-12-23T07:02:14.991Z,52.5
2022-12-23T07:07:18.349Z,46.9
2022-12-23T07:12:20.635Z,49.9
2022-12-23T07:17:25.103Z,47.6
2022-12-23T07:22:39.041Z,76.9
2022-12-23T07:27:31.244Z,51.9
2022-12-23T07:32:33.338Z,53.6
2022-12-23T07:37:35.349Z,54.7
2022-12-23T07:42:47.734Z,52.2
2022-12-23T07:47:39.997Z,54.8
2022-12-23T07:52:42.188Z,77.5
2022-12-23T07:57:42.679Z,47
2022-12-23T08:02:45.256Z,49
2022-12-23T08:07:48.371Z,49.3
2022-12-23T08:12:50.906Z,52.2
2022-12-23T08:17:53.937Z,48.6
2022-12-23T08:22:56.653Z,49.3
2022-12-23T08:27:59.251Z,48.3
2022-12-23T08:33:01.674Z,47.8
2022-12-23T08:38:03.729Z,46.2
2022-12-23T08:43:05.936Z,43.2
2022-12-23T08:48:08.623Z,50.1
2022-12-23T08:53:11.478Z,48.8
2022-12-23T08:58:13.744Z,45.6
2022-12-23T09:03:16.138Z,42.5
2022-12-23T09:08:18.627Z,44
2022-12-23T09:13:35.026Z,44.5
2022-12-23T09:18:27.666Z,43.6
2022-12-23T09:23:29.732Z,42.3
2022-12-23T09:28:31.870Z,39.4
2022-12-23T09:33:33.984Z,40.3
2022-12-23T09:38:36.271Z,33.6
2022-12-23T09:43:38.587Z,31.8
2022-12-23T09:48:40.633Z,28.9
2022-12-23T09:53:42.746Z,27.4
2022-12-23T09:58:44.856Z,26.8
2022-12-23T10:03:47.378Z,28.7
2022-12-23T10:08:50.836Z,28.9
2022-12-23T10:13:53.403Z,29
2022-12-23T10:18:55.815Z,28.7
2022-12-23T10:23:58.013Z,30.4
2022-12-23T10:29:00.341Z,29.2
2022-12-23T10:34:02.508Z,28
2022-12-23T10:39:04.551Z,28.7
2022-12-23T10:44:06.916Z,29.8
2022-12-23T10:49:09.503Z,29
2022-12-23T10:54:11.951Z,30.4
2022-12-23T10:59:14.212Z,30.5
2022-12-23T11:04:16.533Z,31
2022-12-23T11:09:18.599Z,30.4
2022-12-23T11:14:20.739Z,34.4
2022-12-23T11:19:22.874Z,31.3
2022-12-23T11:24:25.038Z,33.8
2022-12-23T11:29:27.317Z,35.8
2022-12-23T11:34:29.902Z,36.4
2022-12-23T11:39:32.080Z,35.7
2022-12-23T11:44:34.256Z,39.7
2022-12-23T11:49:37.427Z,38.7
2022-12-23T11:54:39.973Z,39.9
2022-12-23T11:59:42.678Z,40
2022-12-23T12:04:45.440Z,40.4
2022-12-23T12:09:48.911Z,37.6
2022-12-23T12:14:51.012Z,34.6
2022-12-23T12:19:53.065Z,47.9
2022-12-23T12:24:54.015Z,29.1
2022-12-23T12:29:56.649Z,28
2022-12-23T12:40:08.280Z,24.1
2022-12-23T12:45:10.672Z,18.3
2022-12-23T12:50:12.713Z,16.9
2022-12-23T12:55:14.736Z,16.4
2022-12-23T13:00:16.925Z,17
2022-12-23T13:05:33.445Z,16.5
2022-12-23T13:15:36.591Z,15.9
2022-12-23T13:20:44.793Z,15.6
2022-12-23T13:25:47.570Z,16.4
2022-12-23T13:30:51.041Z,16.3
2022-12-23T13:36:07.077Z,15.7
2022-12-23T13:41:10.391Z,16.8
2022-12-23T13:46:13.204Z,17.5
2022-12-23T13:51:19.620Z,24.2
2022-12-23T13:56:29.512Z,25.3
2022-12-23T14:01:30.190Z,17
2022-12-23T14:06:35.719Z,17.6
2022-12-23T14:11:42.390Z,18.5
2022-12-23T14:21:44.899Z,20.3
2022-12-23T14:26:46.954Z,20.9
2022-12-23T14:31:49.065Z,21.2
2022-12-23T14:36:51.429Z,33.5
2022-12-23T14:41:52.134Z,24
2022-12-23T14:47:05.784Z,24.3
2022-12-23T14:51:58.137Z,23.9
2022-12-23T14:57:02.594Z,24.5
2022-12-23T15:02:06.225Z,27.3
2022-12-23T15:07:08.551Z,29.3
2022-12-23T15:12:10.596Z,29.3
2022-12-23T15:17:12.552Z,32.2
2022-12-23T15:22:32.030Z,35.2
2022-12-23T15:27:31.392Z,34.4
2022-12-23T15:32:23.614Z,34.1
2022-12-23T15:37:25.900Z,34.9
2022-12-23T15:42:28.068Z,35.6
2022-12-23T15:47:30.662Z,35.3
2022-12-23T15:52:32.886Z,35.8
2022-12-23T15:57:34.938Z,36.6
2022-12-23T16:03:13.701Z,38.7
2022-12-23T16:07:38.185Z,38.9
2022-12-23T16:12:40.467Z,38.2
2022-12-23T16:17:43.730Z,37.9
2022-12-23T16:22:45.830Z,40.1
2022-12-23T16:27:50.808Z,41.1
2022-12-23T16:32:53.528Z,47.6
2022-12-23T16:37:55.895Z,47.6
2022-12-23T16:42:58.048Z,49
2022-12-23T16:48:00.275Z,46.8
2022-12-23T16:53:04.232Z,48.4
2022-12-23T16:58:06.266Z,50.7
2022-12-23T17:03:08.545Z,51.6
2022-12-23T17:08:10.527Z,51.6
2022-12-23T17:13:12.775Z,53.9
2022-12-23T17:18:14.910Z,54.1
2022-12-23T17:23:17.120Z,54.8
2022-12-23T17:28:19.374Z,56.2
2022-12-23T17:33:21.483Z,60.8
2022-12-23T17:38:24.069Z,58.5
2022-12-23T17:43:27.067Z,56.8
2022-12-23T17:48:33.447Z,59.8
2022-12-23T17:53:36.060Z,57
2022-12-23T17:58:39.136Z,59.5
2022-12-23T18:03:41.467Z,61.7
2022-12-23T18:08:43.720Z,63.9
2022-12-23T18:13:45.887Z,67.9
2022-12-23T18:18:48.335Z,60.2
2022-12-23T18:23:51.067Z,57.9
2022-12-23T18:28:53.724Z,56.5
2022-12-23T18:33:56.363Z,54.5
2022-12-23T18:38:58.650Z,54.6
2022-12-23T18:44:00.952Z,50.9
2022-12-23T18:49:03.313Z,53
2022-12-23T18:54:05.669Z,51.3
2022-12-23T18:59:07.926Z,50.8
2022-12-23T19:04:10.359Z,52.7
2022-12-23T19:09:12.687Z,51.6
2022-12-23T19:14:14.869Z,51.3
2022-12-23T19:19:17.431Z,49.9
2022-12-23T19:24:19.756Z,50.7
2022-12-23T19:29:22.023Z,50.1
2022-12-23T19:34:24.401Z,46.3
2022-12-23T19:39:27.007Z,46.7
2022-12-23T19:44:30.329Z,50.2
2022-12-23T19:49:33.021Z,55.7
2022-12-23T19:54:35.200Z,51.6
2022-12-23T19:59:37.419Z,50.6
2022-12-23T20:04:39.691Z,48.2
2022-12-23T20:09:42.459Z,46.9
2022-12-23T20:14:44.550Z,45.9
2022-12-23T20:19:47.698Z,46.2
2022-12-23T20:24:50.123Z,56.4
2022-12-23T20:29:52.573Z,43.6
2022-12-23T20:34:54.848Z,41.8
2022-12-23T20:39:57.541Z,39.8
2022-12-23T20:44:59.747Z,44.3
2022-12-23T20:50:02.036Z,36.8
2022-12-23T20:55:04.386Z,33.1
2022-12-23T21:00:09.204Z,36.1
2022-12-23T21:05:11.855Z,34.1
2022-12-23T21:10:14.083Z,32
2022-12-23T21:15:16.551Z,44.1
2022-12-23T21:20:16.960Z,25.8
2022-12-23T21:25:19.206Z,24.1
2022-12-23T21:30:21.461Z,25.5
2022-12-23T21:35:23.779Z,21.7
2022-12-23T21:40:25.981Z,22.2
2022-12-23T21:45:28.457Z,21.1
2022-12-23T21:50:31.036Z,22.1
2022-12-23T21:55:33.214Z,23.9
2022-12-23T22:00:35.280Z,25
2022-12-23T22:05:38.401Z,26.9
2022-12-23T22:15:43.130Z,26.3
2022-12-23T22:20:47.376Z,25
2022-12-23T22:25:49.891Z,24.7
2022-12-23T22:30:52.403Z,23.9
2022-12-23T22:35:54.797Z,23.8
2022-12-23T22:41:00.158Z,22.6
2022-12-23T22:46:02.813Z,35.1
2022-12-23T22:51:03.698Z,23.3
2022-12-23T22:56:07.768Z,23.2
2022-12-23T23:01:09.782Z,23.9
2022-12-23T23:06:11.899Z,24
2022-12-23T23:11:13.999Z,23.8
2022-12-23T23:16:16.064Z,21.8
2022-12-23T23:21:18.404Z,22.7
2022-12-23T23:26:20.619Z,21.7
2022-12-23T23:31:52.623Z,21.3
2022-12-23T23:36:25.383Z,21.5
2022-12-23T23:41:27.821Z,20.7
2022-12-23T23:46:30.135Z,21.1
2022-12-23T23:51:32.531Z,21.3
2022-12-23T23:56:39.717Z,20.9
